Alpena, MI

4:06 PM EDT on March 24, 2017 (GMT -0400)
Oliver Street / Third Avenue | | Change Station

Elev 597 ft 45.05 °N, 83.45 °W | Updated 4 minutes ago

Overcast
Overcast
38.2 °F
Feels Like 38 °F
N
2.0
Wind Variable Wind from NW
Gusts 7.0 mph

Today
High -- | Low -- °F
--% Chance of Precip.
Yesterday
High -- | Low -- °F
Precip. -- in
Pressure 30.04 in
Visibility 4.0 miles
Clouds Overcast 800 ft
Windchill 38 °F
Dew Point 37 °F
Humidity 94%
Rainfall 0.28 in
Snow Depth Not available.
7:28 AM 7:51 PM
Waning Crescent, 13% visible
METAR KAPN 241954Z AUTO 35010KT 4SM -RA BR OVC008 03/03 A3001 RMK AO2 RAB22 CIG 005V012 SLP170 P0000 T00330028
Pressure 30.04 in
Visibility 4.0 miles
Clouds Overcast 800 ft
Windchill 38 °F
Dew Point 37 °F
Humidity 94%
Rainfall 0.28 in
Snow Depth Not available.
7:28 AM 7:51 PM
Waning Crescent, 13% visible
METAR KAPN 241954Z AUTO 35010KT 4SM -RA BR OVC008 03/03 A3001 RMK AO2 RAB22 CIG 005V012 SLP170 P0000 T00330028

Get Severe Weather Alerts

Thanks for signing up!

Be on the lookout for a verification email in your inbox.

You'll start receiving the daily forecast at 8 AM.

×

10-Day Weather Forecast

Almanac

Astronomy

Mar. 24, 2017 Rise Set
Actual Time
Civil Twilight
Nautical Twilight
Astronomical Twilight
Moon
Length of Visible Light
Length of Day
Tomorrow will be .
, % of the Moon is Illuminated

Today's Extremes

State Highs State Lows

Community

WunderPhotos

Upload Photos

1,962,540 photos uploaded!

WunderBlog® & News

Nearby

Air Quality

  Air Quality AQ Index Pollutant
Not available.

Snow Depth

Station Depth Elevation

Earthquake Activity

City Distance Mag. Time & Date
Minimum magnitude displayed is 2.5.

Earthquake Activity

City Distance Mag. Time & Date
Minimum magnitude displayed is 2.5.

Coastal Water Temperatures

Place Temperature

Stations

Nearby Weather Stations

Station Location Temp. Windchill Dew Point Humidity Wind Precip. Elev Updated Type
                   

Watches & Warnings

There are currently no watches in effect.